sensor_id;sensor_type;location;lat;lon;timestamp;temperature;humidity
18898;DHT22;9581;49.484;8.556;2023-03-14T00:00:06;11.20;99.90
18898;DHT22;9581;49.484;8.556;2023-03-14T00:02:36;11.30;99.90
18898;DHT22;9581;49.484;8.556;2023-03-14T00:05:05;11.20;99.90
18898;DHT22;9581;49.484;8.556;2023-03-14T00:07:33;11.20;99.90
18898;DHT22;9581;49.484;8.556;2023-03-14T00:10:03;11.30;99.90
18898;DHT22;9581;49.484;8.556;2023-03-14T00:12:31;11.30;99.90
18898;DHT22;9581;49.484;8.556;2023-03-14T00:14:58;11.20;99.90
18898;DHT22;9581;49.484;8.556;2023-03-14T00:17:26;11.30;99.90
18898;DHT22;9581;49.484;8.556;2023-03-14T00:19:52;11.20;99.90
18898;DHT22;9581;49.484;8.556;2023-03-14T00:22:21;11.20;99.90
18898;DHT22;9581;49.484;8.556;2023-03-14T00:24:48;11.30;99.90
18898;DHT22;9581;49.484;8.556;2023-03-14T00:27:15;11.20;99.90
18898;DHT22;9581;49.484;8.556;2023-03-14T00:29:42;11.30;99.90
18898;DHT22;9581;49.484;8.556;2023-03-14T00:32:10;11.30;99.90
18898;DHT22;9581;49.484;8.556;2023-03-14T00:34:37;11.30;99.90
18898;DHT22;9581;49.484;8.556;2023-03-14T00:37:03;11.30;99.90
18898;DHT22;9581;49.484;8.556;2023-03-14T00:39:32;11.30;99.90
18898;DHT22;9581;49.484;8.556;2023-03-14T00:41:59;11.30;99.90
18898;DHT22;9581;49.484;8.556;2023-03-14T00:44:25;11.30;99.90
18898;DHT22;9581;49.484;8.556;2023-03-14T00:46:52;11.40;99.90
18898;DHT22;9581;49.484;8.556;2023-03-14T00:49:19;11.40;99.90
18898;DHT22;9581;49.484;8.556;2023-03-14T00:51:46;11.30;99.90
18898;DHT22;9581;49.484;8.556;2023-03-14T00:54:13;11.40;99.90
18898;DHT22;9581;49.484;8.556;2023-03-14T00:56:41;11.40;99.90
18898;DHT22;9581;49.484;8.556;2023-03-14T00:59:08;11.40;99.90
18898;DHT22;9581;49.484;8.556;2023-03-14T01:01:35;11.20;99.90
18898;DHT22;9581;49.484;8.556;2023-03-14T01:04:01;11.30;99.90
18898;DHT22;9581;49.484;8.556;2023-03-14T01:06:29;11.30;99.90
18898;DHT22;9581;49.484;8.556;2023-03-14T01:08:57;11.20;99.90
18898;DHT22;9581;49.484;8.556;2023-03-14T01:11:25;11.20;99.90
18898;DHT22;9581;49.484;8.556;2023-03-14T01:13:54;11.30;99.90
18898;DHT22;9581;49.484;8.556;2023-03-14T01:16:23;11.20;99.90
18898;DHT22;9581;49.484;8.556;2023-03-14T01:18:50;11.30;99.90
18898;DHT22;9581;49.484;8.556;2023-03-14T01:21:19;11.30;99.90
18898;DHT22;9581;49.484;8.556;2023-03-14T01:23:47;11.40;99.90
18898;DHT22;9581;49.484;8.556;2023-03-14T01:26:16;11.30;99.90
18898;DHT22;9581;49.484;8.556;2023-03-14T01:28:44;11.20;99.90
18898;DHT22;9581;49.484;8.556;2023-03-14T01:31:14;11.40;99.90
18898;DHT22;9581;49.484;8.556;2023-03-14T01:33:41;11.30;99.90
18898;DHT22;9581;49.484;8.556;2023-03-14T01:36:09;11.30;99.90
18898;DHT22;9581;49.484;8.556;2023-03-14T01:38:38;11.20;99.90
18898;DHT22;9581;49.484;8.556;2023-03-14T01:41:06;11.30;99.90
18898;DHT22;9581;49.484;8.556;2023-03-14T01:43:33;11.30;99.90
18898;DHT22;9581;49.484;8.556;2023-03-14T01:46:19;11.30;99.90
18898;DHT22;9581;49.484;8.556;2023-03-14T01:48:51;11.30;99.90
18898;DHT22;9581;49.484;8.556;2023-03-14T01:51:22;11.40;99.90
18898;DHT22;9581;49.484;8.556;2023-03-14T01:53:52;11.40;99.90
18898;DHT22;9581;49.484;8.556;2023-03-14T01:56:21;11.30;99.90
18898;DHT22;9581;49.484;8.556;2023-03-14T01:58:49;11.30;99.90
18898;DHT22;9581;49.484;8.556;2023-03-14T02:01:20;11.30;99.90
18898;DHT22;9581;49.484;8.556;2023-03-14T02:03:51;11.20;99.90
18898;DHT22;9581;49.484;8.556;2023-03-14T02:06:22;11.30;99.90
18898;DHT22;9581;49.484;8.556;2023-03-14T02:08:51;11.30;99.90
18898;DHT22;9581;49.484;8.556;2023-03-14T02:11:18;11.20;99.90
18898;DHT22;9581;49.484;8.556;2023-03-14T02:13:46;11.20;99.90
18898;DHT22;9581;49.484;8.556;2023-03-14T02:16:13;11.20;99.90
18898;DHT22;9581;49.484;8.556;2023-03-14T02:18:42;11.20;99.90
18898;DHT22;9581;49.484;8.556;2023-03-14T02:21:13;11.10;99.90
18898;DHT22;9581;49.484;8.556;2023-03-14T02:23:50;11.20;99.90
18898;DHT22;9581;49.484;8.556;2023-03-14T02:26:21;11.20;99.90
18898;DHT22;9581;49.484;8.556;2023-03-14T02:28:51;11.20;99.90
18898;DHT22;9581;49.484;8.556;2023-03-14T02:31:18;11.20;99.90
18898;DHT22;9581;49.484;8.556;2023-03-14T02:33:46;11.20;99.90
18898;DHT22;9581;49.484;8.556;2023-03-14T02:36:14;11.20;99.90
18898;DHT22;9581;49.484;8.556;2023-03-14T02:38:45;11.20;99.90
18898;DHT22;9581;49.484;8.556;2023-03-14T02:41:14;11.30;99.90
18898;DHT22;9581;49.484;8.556;2023-03-14T02:43:40;11.20;99.90
18898;DHT22;9581;49.484;8.556;2023-03-14T02:46:11;11.30;99.90
18898;DHT22;9581;49.484;8.556;2023-03-14T02:48:40;11.20;99.90
18898;DHT22;9581;49.484;8.556;2023-03-14T02:51:09;11.20;99.90
18898;DHT22;9581;49.484;8.556;2023-03-14T02:53:37;11.20;99.90
18898;DHT22;9581;49.484;8.556;2023-03-14T02:56:04;11.10;99.90
18898;DHT22;9581;49.484;8.556;2023-03-14T02:58:31;11.20;99.90
18898;DHT22;9581;49.484;8.556;2023-03-14T03:00:58;11.10;99.90
18898;DHT22;9581;49.484;8.556;2023-03-14T03:03:26;11.20;99.90
18898;DHT22;9581;49.484;8.556;2023-03-14T03:05:54;11.10;99.90
18898;DHT22;9581;49.484;8.556;2023-03-14T03:08:23;11.00;99.90
18898;DHT22;9581;49.484;8.556;2023-03-14T03:10:52;11.00;99.90
18898;DHT22;9581;49.484;8.556;2023-03-14T03:13:19;11.10;99.90
18898;DHT22;9581;49.484;8.556;2023-03-14T03:15:46;11.00;99.90
18898;DHT22;9581;49.484;8.556;2023-03-14T03:18:13;11.00;99.90
18898;DHT22;9581;49.484;8.556;2023-03-14T03:20:41;11.10;99.90
18898;DHT22;9581;49.484;8.556;2023-03-14T03:23:08;11.10;99.90
18898;DHT22;9581;49.484;8.556;2023-03-14T03:25:35;11.10;99.90
18898;DHT22;9581;49.484;8.556;2023-03-14T03:28:02;11.00;99.90
18898;DHT22;9581;49.484;8.556;2023-03-14T03:30:33;11.00;99.90
18898;DHT22;9581;49.484;8.556;2023-03-14T03:33:00;11.00;99.90
18898;DHT22;9581;49.484;8.556;2023-03-14T03:35:27;11.00;99.90
18898;DHT22;9581;49.484;8.556;2023-03-14T03:37:55;11.10;99.90
18898;DHT22;9581;49.484;8.556;2023-03-14T03:40:22;11.10;99.90
18898;DHT22;9581;49.484;8.556;2023-03-14T03:42:49;11.10;99.90
18898;DHT22;9581;49.484;8.556;2023-03-14T03:45:15;10.90;99.90
18898;DHT22;9581;49.484;8.556;2023-03-14T03:47:43;11.00;99.90
18898;DHT22;9581;49.484;8.556;2023-03-14T03:50:10;10.90;99.90
18898;DHT22;9581;49.484;8.556;2023-03-14T03:52:37;11.00;99.90
18898;DHT22;9581;49.484;8.556;2023-03-14T03:55:06;11.10;99.90
18898;DHT22;9581;49.484;8.556;2023-03-14T03:57:33;11.10;99.90
18898;DHT22;9581;49.484;8.556;2023-03-14T03:59:59;11.00;99.90
18898;DHT22;9581;49.484;8.556;2023-03-14T04:02:26;11.00;99.90
18898;DHT22;9581;49.484;8.556;2023-03-14T04:04:53;11.00;99.90
18898;DHT22;9581;49.484;8.556;2023-03-14T04:07:20;11.00;99.90
18898;DHT22;9581;49.484;8.556;2023-03-14T04:09:47;11.10;99.90
18898;DHT22;9581;49.484;8.556;2023-03-14T04:12:15;11.00;99.90
18898;DHT22;9581;49.484;8.556;2023-03-14T04:14:42;11.00;99.90
18898;DHT22;9581;49.484;8.556;2023-03-14T04:17:09;10.90;99.90
18898;DHT22;9581;49.484;8.556;2023-03-14T04:19:35;11.00;99.90
18898;DHT22;9581;49.484;8.556;2023-03-14T04:22:02;11.00;99.90
18898;DHT22;9581;49.484;8.556;2023-03-14T04:24:29;11.10;99.90
18898;DHT22;9581;49.484;8.556;2023-03-14T04:26:56;11.00;99.90
18898;DHT22;9581;49.484;8.556;2023-03-14T04:29:24;11.00;99.90
18898;DHT22;9581;49.484;8.556;2023-03-14T04:31:51;10.90;99.90
18898;DHT22;9581;49.484;8.556;2023-03-14T04:34:17;10.90;99.90
18898;DHT22;9581;49.484;8.556;2023-03-14T04:36:44;11.00;99.90
18898;DHT22;9581;49.484;8.556;2023-03-14T04:39:11;11.00;99.90
18898;DHT22;9581;49.484;8.556;2023-03-14T04:41:38;11.00;99.90
18898;DHT22;9581;49.484;8.556;2023-03-14T04:44:04;11.10;99.90
18898;DHT22;9581;49.484;8.556;2023-03-14T04:46:33;10.90;99.90
18898;DHT22;9581;49.484;8.556;2023-03-14T04:48:59;11.00;99.90
18898;DHT22;9581;49.484;8.556;2023-03-14T04:51:26;11.00;99.90
18898;DHT22;9581;49.484;8.556;2023-03-14T04:53:53;11.00;99.90
18898;DHT22;9581;49.484;8.556;2023-03-14T04:56:20;10.90;99.90
18898;DHT22;9581;49.484;8.556;2023-03-14T04:58:47;11.00;99.90
18898;DHT22;9581;49.484;8.556;2023-03-14T05:01:14;11.10;99.90
18898;DHT22;9581;49.484;8.556;2023-03-14T05:03:42;11.00;99.90
18898;DHT22;9581;49.484;8.556;2023-03-14T05:06:09;11.10;99.90
18898;DHT22;9581;49.484;8.556;2023-03-14T05:08:36;11.10;99.90
18898;DHT22;9581;49.484;8.556;2023-03-14T05:11:03;11.10;99.90
18898;DHT22;9581;49.484;8.556;2023-03-14T05:13:30;11.00;99.90
18898;DHT22;9581;49.484;8.556;2023-03-14T05:16:04;11.10;99.90
18898;DHT22;9581;49.484;8.556;2023-03-14T05:18:31;11.00;99.90
18898;DHT22;9581;49.484;8.556;2023-03-14T05:20:59;11.10;99.90
18898;DHT22;9581;49.484;8.556;2023-03-14T05:23:26;11.00;99.90
18898;DHT22;9581;49.484;8.556;2023-03-14T05:25:53;11.00;99.90
18898;DHT22;9581;49.484;8.556;2023-03-14T05:28:20;11.10;99.90
18898;DHT22;9581;49.484;8.556;2023-03-14T05:30:47;11.10;99.90
18898;DHT22;9581;49.484;8.556;2023-03-14T05:33:14;11.00;99.90
18898;DHT22;9581;49.484;8.556;2023-03-14T05:35:42;11.00;99.90
18898;DHT22;9581;49.484;8.556;2023-03-14T05:38:10;11.10;99.90
18898;DHT22;9581;49.484;8.556;2023-03-14T05:40:37;10.90;99.90
18898;DHT22;9581;49.484;8.556;2023-03-14T05:43:03;11.00;99.90
18898;DHT22;9581;49.484;8.556;2023-03-14T05:45:33;11.10;99.90
18898;DHT22;9581;49.484;8.556;2023-03-14T05:48:00;11.10;99.90
18898;DHT22;9581;49.484;8.556;2023-03-14T05:50:27;11.00;99.90
18898;DHT22;9581;49.484;8.556;2023-03-14T05:52:53;11.10;99.90
18898;DHT22;9581;49.484;8.556;2023-03-14T05:55:22;11.10;99.90
18898;DHT22;9581;49.484;8.556;2023-03-14T05:57:48;11.00;99.90
18898;DHT22;9581;49.484;8.556;2023-03-14T06:00:16;11.00;99.90
18898;DHT22;9581;49.484;8.556;2023-03-14T06:02:43;11.00;99.90
18898;DHT22;9581;49.484;8.556;2023-03-14T06:05:11;11.00;99.90
18898;DHT22;9581;49.484;8.556;2023-03-14T06:07:38;11.10;99.90
18898;DHT22;9581;49.484;8.556;2023-03-14T06:10:06;11.00;99.90
18898;DHT22;9581;49.484;8.556;2023-03-14T06:12:34;11.00;99.90
18898;DHT22;9581;49.484;8.556;2023-03-14T06:15:01;11.10;99.90
18898;DHT22;9581;49.484;8.556;2023-03-14T06:17:28;11.10;99.90
18898;DHT22;9581;49.484;8.556;2023-03-14T06:19:55;11.10;99.90
18898;DHT22;9581;49.484;8.556;2023-03-14T06:22:21;11.10;99.90
18898;DHT22;9581;49.484;8.556;2023-03-14T06:24:48;11.00;99.90
18898;DHT22;9581;49.484;8.556;2023-03-14T06:27:15;11.00;99.90
18898;DHT22;9581;49.484;8.556;2023-03-14T06:29:43;11.10;99.90
18898;DHT22;9581;49.484;8.556;2023-03-14T06:32:10;11.10;99.90
18898;DHT22;9581;49.484;8.556;2023-03-14T06:34:37;11.00;99.90
18898;DHT22;9581;49.484;8.556;2023-03-14T06:37:06;11.00;99.90
18898;DHT22;9581;49.484;8.556;2023-03-14T06:39:33;11.10;99.90
18898;DHT22;9581;49.484;8.556;2023-03-14T06:41:59;11.20;99.90
18898;DHT22;9581;49.484;8.556;2023-03-14T06:44:26;11.20;99.90
18898;DHT22;9581;49.484;8.556;2023-03-14T06:46:54;11.30;99.90
18898;DHT22;9581;49.484;8.556;2023-03-14T06:49:21;11.20;99.90
18898;DHT22;9581;49.484;8.556;2023-03-14T06:51:48;11.20;99.90
18898;DHT22;9581;49.484;8.556;2023-03-14T06:54:15;11.20;99.90
18898;DHT22;9581;49.484;8.556;2023-03-14T06:56:42;11.20;99.90
18898;DHT22;9581;49.484;8.556;2023-03-14T06:59:09;11.20;99.90
18898;DHT22;9581;49.484;8.556;2023-03-14T07:01:36;11.20;99.90
18898;DHT22;9581;49.484;8.556;2023-03-14T07:04:04;11.10;99.90
18898;DHT22;9581;49.484;8.556;2023-03-14T07:06:31;11.20;99.90
18898;DHT22;9581;49.484;8.556;2023-03-14T07:08:58;11.20;99.90
18898;DHT22;9581;49.484;8.556;2023-03-14T07:11:26;11.30;99.90
18898;DHT22;9581;49.484;8.556;2023-03-14T07:13:53;11.30;99.90
18898;DHT22;9581;49.484;8.556;2023-03-14T07:16:20;11.20;99.90
18898;DHT22;9581;49.484;8.556;2023-03-14T07:18:47;11.20;99.90
18898;DHT22;9581;49.484;8.556;2023-03-14T07:21:16;11.20;99.90
18898;DHT22;9581;49.484;8.556;2023-03-14T07:23:43;11.20;99.90
18898;DHT22;9581;49.484;8.556;2023-03-14T07:26:10;11.30;99.90
18898;DHT22;9581;49.484;8.556;2023-03-14T07:28:36;11.40;99.90
18898;DHT22;9581;49.484;8.556;2023-03-14T07:31:04;11.30;99.90
18898;DHT22;9581;49.484;8.556;2023-03-14T07:33:31;11.30;99.90
18898;DHT22;9581;49.484;8.556;2023-03-14T07:35:58;11.30;99.90
18898;DHT22;9581;49.484;8.556;2023-03-14T07:38:26;11.40;99.90
18898;DHT22;9581;49.484;8.556;2023-03-14T07:40:58;11.30;99.90
18898;DHT22;9581;49.484;8.556;2023-03-14T07:43:25;11.50;99.90
18898;DHT22;9581;49.484;8.556;2023-03-14T07:45:51;11.50;99.90
18898;DHT22;9581;49.484;8.556;2023-03-14T07:48:18;11.60;99.90
18898;DHT22;9581;49.484;8.556;2023-03-14T07:50:48;11.40;99.90
18898;DHT22;9581;49.484;8.556;2023-03-14T07:53:15;11.40;99.90
18898;DHT22;9581;49.484;8.556;2023-03-14T07:55:43;11.50;99.90
18898;DHT22;9581;49.484;8.556;2023-03-14T07:58:10;11.30;99.90
18898;DHT22;9581;49.484;8.556;2023-03-14T08:00:38;11.40;99.90
18898;DHT22;9581;49.484;8.556;2023-03-14T08:03:05;11.50;99.90
18898;DHT22;9581;49.484;8.556;2023-03-14T08:05:34;11.50;99.90
18898;DHT22;9581;49.484;8.556;2023-03-14T08:08:02;11.60;99.90
18898;DHT22;9581;49.484;8.556;2023-03-14T08:10:29;11.50;99.90
18898;DHT22;9581;49.484;8.556;2023-03-14T08:12:59;11.60;99.90
18898;DHT22;9581;49.484;8.556;2023-03-14T08:15:28;11.50;99.90
18898;DHT22;9581;49.484;8.556;2023-03-14T08:17:55;11.60;99.90
18898;DHT22;9581;49.484;8.556;2023-03-14T08:20:24;11.80;99.90
18898;DHT22;9581;49.484;8.556;2023-03-14T08:22:51;11.80;99.90
18898;DHT22;9581;49.484;8.556;2023-03-14T08:25:18;11.70;99.90
18898;DHT22;9581;49.484;8.556;2023-03-14T08:27:45;11.90;99.90
18898;DHT22;9581;49.484;8.556;2023-03-14T08:30:15;12.00;99.90
18898;DHT22;9581;49.484;8.556;2023-03-14T08:32:43;12.10;99.90
18898;DHT22;9581;49.484;8.556;2023-03-14T08:35:10;12.10;99.90
18898;DHT22;9581;49.484;8.556;2023-03-14T08:37:37;12.10;99.90
18898;DHT22;9581;49.484;8.556;2023-03-14T08:40:05;12.20;99.90
18898;DHT22;9581;49.484;8.556;2023-03-14T08:42:32;12.10;99.90
18898;DHT22;9581;49.484;8.556;2023-03-14T08:44:59;12.10;99.90
18898;DHT22;9581;49.484;8.556;2023-03-14T08:47:27;12.10;99.90
18898;DHT22;9581;49.484;8.556;2023-03-14T08:49:55;12.10;99.90
18898;DHT22;9581;49.484;8.556;2023-03-14T08:52:22;12.10;99.90
18898;DHT22;9581;49.484;8.556;2023-03-14T08:54:49;12.10;99.90
18898;DHT22;9581;49.484;8.556;2023-03-14T08:57:16;12.10;99.90
18898;DHT22;9581;49.484;8.556;2023-03-14T08:59:42;12.10;99.90
18898;DHT22;9581;49.484;8.556;2023-03-14T09:02:11;12.20;99.90
18898;DHT22;9581;49.484;8.556;2023-03-14T09:04:39;12.20;99.90
18898;DHT22;9581;49.484;8.556;2023-03-14T09:07:06;12.00;99.90
18898;DHT22;9581;49.484;8.556;2023-03-14T09:09:33;12.20;99.90
18898;DHT22;9581;49.484;8.556;2023-03-14T09:12:00;12.20;99.90
18898;DHT22;9581;49.484;8.556;2023-03-14T09:14:27;12.20;99.90
18898;DHT22;9581;49.484;8.556;2023-03-14T09:16:54;12.10;99.90
18898;DHT22;9581;49.484;8.556;2023-03-14T09:19:21;12.10;99.90
18898;DHT22;9581;49.484;8.556;2023-03-14T09:21:49;12.30;99.90
18898;DHT22;9581;49.484;8.556;2023-03-14T09:24:16;12.30;99.90
18898;DHT22;9581;49.484;8.556;2023-03-14T09:26:43;12.30;99.90
18898;DHT22;9581;49.484;8.556;2023-03-14T09:29:10;12.20;99.90
18898;DHT22;9581;49.484;8.556;2023-03-14T09:31:37;12.20;99.90
18898;DHT22;9581;49.484;8.556;2023-03-14T09:34:04;12.40;99.90
18898;DHT22;9581;49.484;8.556;2023-03-14T09:36:31;12.20;99.90
18898;DHT22;9581;49.484;8.556;2023-03-14T09:38:59;12.20;99.90
18898;DHT22;9581;49.484;8.556;2023-03-14T09:41:28;12.20;99.90
18898;DHT22;9581;49.484;8.556;2023-03-14T09:44:02;12.30;99.90
18898;DHT22;9581;49.484;8.556;2023-03-14T09:46:30;12.40;99.90
18898;DHT22;9581;49.484;8.556;2023-03-14T09:48:58;12.50;99.90
18898;DHT22;9581;49.484;8.556;2023-03-14T09:51:25;12.50;99.90
18898;DHT22;9581;49.484;8.556;2023-03-14T09:53:53;12.60;99.90
18898;DHT22;9581;49.484;8.556;2023-03-14T09:56:24;12.70;99.90
18898;DHT22;9581;49.484;8.556;2023-03-14T09:58:55;12.50;99.90
18898;DHT22;9581;49.484;8.556;2023-03-14T10:01:25;12.50;99.90
18898;DHT22;9581;49.484;8.556;2023-03-14T10:03:54;12.50;99.90
18898;DHT22;9581;49.484;8.556;2023-03-14T10:06:24;12.40;99.90
18898;DHT22;9581;49.484;8.556;2023-03-14T10:08:52;12.30;99.90
18898;DHT22;9581;49.484;8.556;2023-03-14T10:11:22;12.50;99.90
18898;DHT22;9581;49.484;8.556;2023-03-14T10:14:01;12.30;99.90
18898;DHT22;9581;49.484;8.556;2023-03-14T10:16:30;12.60;99.90
18898;DHT22;9581;49.484;8.556;2023-03-14T10:19:03;12.70;99.90
18898;DHT22;9581;49.484;8.556;2023-03-14T10:21:35;12.70;99.90
18898;DHT22;9581;49.484;8.556;2023-03-14T10:24:20;12.80;99.90
18898;DHT22;9581;49.484;8.556;2023-03-14T10:26:49;12.70;99.90
18898;DHT22;9581;49.484;8.556;2023-03-14T10:29:18;12.60;99.90
18898;DHT22;9581;49.484;8.556;2023-03-14T10:31:50;12.60;99.90
18898;DHT22;9581;49.484;8.556;2023-03-14T10:34:22;12.40;99.90
18898;DHT22;9581;49.484;8.556;2023-03-14T10:36:53;12.20;99.90
18898;DHT22;9581;49.484;8.556;2023-03-14T10:39:42;12.30;99.90
18898;DHT22;9581;49.484;8.556;2023-03-14T10:42:17;12.30;99.90
18898;DHT22;9581;49.484;8.556;2023-03-14T10:44:46;12.40;99.90
18898;DHT22;9581;49.484;8.556;2023-03-14T10:47:18;12.20;99.90
18898;DHT22;9581;49.484;8.556;2023-03-14T10:49:46;12.20;99.90
18898;DHT22;9581;49.484;8.556;2023-03-14T10:52:19;12.20;99.90
18898;DHT22;9581;49.484;8.556;2023-03-14T10:54:49;12.10;99.90
18898;DHT22;9581;49.484;8.556;2023-03-14T10:57:19;12.00;99.90
18898;DHT22;9581;49.484;8.556;2023-03-14T10:59:46;11.70;99.90
18898;DHT22;9581;49.484;8.556;2023-03-14T11:02:36;11.50;99.90
18898;DHT22;9581;49.484;8.556;2023-03-14T11:05:19;11.40;99.90
18898;DHT22;9581;49.484;8.556;2023-03-14T11:07:47;11.40;99.90
18898;DHT22;9581;49.484;8.556;2023-03-14T11:10:20;11.40;99.90
18898;DHT22;9581;49.484;8.556;2023-03-14T11:13:04;11.40;99.90
18898;DHT22;9581;49.484;8.556;2023-03-14T11:15:36;11.50;99.90
18898;DHT22;9581;49.484;8.556;2023-03-14T11:18:21;11.50;99.90
18898;DHT22;9581;49.484;8.556;2023-03-14T11:20:56;11.50;99.90
18898;DHT22;9581;49.484;8.556;2023-03-14T11:23:31;11.50;99.90
18898;DHT22;9581;49.484;8.556;2023-03-14T11:26:05;11.80;99.90
18898;DHT22;9581;49.484;8.556;2023-03-14T11:28:38;11.70;99.90
18898;DHT22;9581;49.484;8.556;2023-03-14T11:31:14;11.40;99.90
18898;DHT22;9581;49.484;8.556;2023-03-14T11:33:47;11.40;99.90
18898;DHT22;9581;49.484;8.556;2023-03-14T11:36:20;11.40;99.90
18898;DHT22;9581;49.484;8.556;2023-03-14T11:38:49;11.30;99.90
18898;DHT22;9581;49.484;8.556;2023-03-14T11:41:19;11.30;99.90
18898;DHT22;9581;49.484;8.556;2023-03-14T11:43:50;11.30;99.90
18898;DHT22;9581;49.484;8.556;2023-03-14T11:46:22;11.20;99.90
18898;DHT22;9581;49.484;8.556;2023-03-14T11:48:59;11.10;99.90
18898;DHT22;9581;49.484;8.556;2023-03-14T11:51:29;11.10;99.90
18898;DHT22;9581;49.484;8.556;2023-03-14T11:54:02;11.20;99.90
18898;DHT22;9581;49.484;8.556;2023-03-14T11:56:36;11.00;99.90
18898;DHT22;9581;49.484;8.556;2023-03-14T11:59:12;11.10;99.90
18898;DHT22;9581;49.484;8.556;2023-03-14T12:01:52;11.20;99.90
18898;DHT22;9581;49.484;8.556;2023-03-14T12:04:28;11.40;99.90
18898;DHT22;9581;49.484;8.556;2023-03-14T12:07:02;11.60;99.90
18898;DHT22;9581;49.484;8.556;2023-03-14T12:09:30;11.60;99.90
18898;DHT22;9581;49.484;8.556;2023-03-14T12:12:00;11.50;99.90
18898;DHT22;9581;49.484;8.556;2023-03-14T12:14:30;11.30;99.90
18898;DHT22;9581;49.484;8.556;2023-03-14T12:17:05;11.30;99.90
18898;DHT22;9581;49.484;8.556;2023-03-14T12:19:34;11.20;99.90
18898;DHT22;9581;49.484;8.556;2023-03-14T12:22:28;11.20;99.90
18898;DHT22;9581;49.484;8.556;2023-03-14T12:25:03;11.20;99.90
18898;DHT22;9581;49.484;8.556;2023-03-14T12:30:33;11.40;99.90
18898;DHT22;9581;49.484;8.556;2023-03-14T12:33:20;11.50;99.90
18898;DHT22;9581;49.484;8.556;2023-03-14T12:35:49;11.60;99.90
18898;DHT22;9581;49.484;8.556;2023-03-14T12:38:21;11.50;99.90
18898;DHT22;9581;49.484;8.556;2023-03-14T12:40:57;11.30;99.90
18898;DHT22;9581;49.484;8.556;2023-03-14T12:43:27;11.30;99.90
18898;DHT22;9581;49.484;8.556;2023-03-14T12:46:15;11.30;99.90
18898;DHT22;9581;49.484;8.556;2023-03-14T12:48:46;11.20;99.90
18898;DHT22;9581;49.484;8.556;2023-03-14T12:51:15;11.50;99.90
18898;DHT22;9581;49.484;8.556;2023-03-14T12:54:15;11.50;99.90
18898;DHT22;9581;49.484;8.556;2023-03-14T12:57:06;11.80;99.90
18898;DHT22;9581;49.484;8.556;2023-03-14T12:59:35;12.20;99.90
18898;DHT22;9581;49.484;8.556;2023-03-14T13:02:21;12.50;99.90
18898;DHT22;9581;49.484;8.556;2023-03-14T13:04:52;12.20;99.90
18898;DHT22;9581;49.484;8.556;2023-03-14T13:07:32;11.90;99.90
18898;DHT22;9581;49.484;8.556;2023-03-14T13:10:05;11.10;99.90
18898;DHT22;9581;49.484;8.556;2023-03-14T13:12:47;11.30;99.90
18898;DHT22;9581;49.484;8.556;2023-03-14T13:15:24;11.20;99.90
18898;DHT22;9581;49.484;8.556;2023-03-14T13:17:56;11.10;99.90
18898;DHT22;9581;49.484;8.556;2023-03-14T13:20:29;11.00;99.90
18898;DHT22;9581;49.484;8.556;2023-03-14T13:22:57;11.00;99.90
18898;DHT22;9581;49.484;8.556;2023-03-14T13:25:23;11.20;99.90
18898;DHT22;9581;49.484;8.556;2023-03-14T13:27:52;11.50;99.90
18898;DHT22;9581;49.484;8.556;2023-03-14T13:30:25;12.00;99.90
18898;DHT22;9581;49.484;8.556;2023-03-14T13:32:54;11.80;99.90
18898;DHT22;9581;49.484;8.556;2023-03-14T13:35:25;11.50;99.90
18898;DHT22;9581;49.484;8.556;2023-03-14T13:37:56;11.50;99.90
18898;DHT22;9581;49.484;8.556;2023-03-14T13:40:30;11.70;99.90
18898;DHT22;9581;49.484;8.556;2023-03-14T13:43:14;12.10;99.90
18898;DHT22;9581;49.484;8.556;2023-03-14T13:45:50;12.00;99.90
18898;DHT22;9581;49.484;8.556;2023-03-14T13:48:19;12.00;99.90
18898;DHT22;9581;49.484;8.556;2023-03-14T13:50:51;11.80;99.90
18898;DHT22;9581;49.484;8.556;2023-03-14T13:53:18;11.60;99.90
18898;DHT22;9581;49.484;8.556;2023-03-14T13:55:45;11.60;99.90
18898;DHT22;9581;49.484;8.556;2023-03-14T13:58:20;11.50;99.90
18898;DHT22;9581;49.484;8.556;2023-03-14T14:00:57;11.20;99.90
18898;DHT22;9581;49.484;8.556;2023-03-14T14:03:27;11.30;99.90
18898;DHT22;9581;49.484;8.556;2023-03-14T14:05:56;11.30;99.90
18898;DHT22;9581;49.484;8.556;2023-03-14T14:08:23;11.30;99.90
18898;DHT22;9581;49.484;8.556;2023-03-14T14:10:54;11.30;99.90
18898;DHT22;9581;49.484;8.556;2023-03-14T14:13:22;11.40;99.90
18898;DHT22;9581;49.484;8.556;2023-03-14T14:15:51;12.10;99.90
18898;DHT22;9581;49.484;8.556;2023-03-14T14:18:22;12.90;99.90
18898;DHT22;9581;49.484;8.556;2023-03-14T14:20:52;13.80;99.90
18898;DHT22;9581;49.484;8.556;2023-03-14T14:23:20;14.10;99.90
18898;DHT22;9581;49.484;8.556;2023-03-14T14:25:51;13.90;99.90
18898;DHT22;9581;49.484;8.556;2023-03-14T14:28:23;14.40;99.90
18898;DHT22;9581;49.484;8.556;2023-03-14T14:33:43;14.10;99.90
18898;DHT22;9581;49.484;8.556;2023-03-14T14:36:20;14.10;99.90
18898;DHT22;9581;49.484;8.556;2023-03-14T14:38:52;14.10;99.90
18898;DHT22;9581;49.484;8.556;2023-03-14T14:41:20;14.60;99.90
18898;DHT22;9581;49.484;8.556;2023-03-14T14:43:47;14.50;99.70
18898;DHT22;9581;49.484;8.556;2023-03-14T14:46:17;14.10;99.20
18898;DHT22;9581;49.484;8.556;2023-03-14T14:48:44;14.00;99.00
18898;DHT22;9581;49.484;8.556;2023-03-14T14:51:24;13.70;95.60
18898;DHT22;9581;49.484;8.556;2023-03-14T14:54:10;13.60;96.00
18898;DHT22;9581;49.484;8.556;2023-03-14T14:56:37;13.20;98.10
18898;DHT22;9581;49.484;8.556;2023-03-14T14:59:06;13.10;97.00
18898;DHT22;9581;49.484;8.556;2023-03-14T15:01:35;12.80;95.50
18898;DHT22;9581;49.484;8.556;2023-03-14T15:04:04;13.10;96.70
18898;DHT22;9581;49.484;8.556;2023-03-14T15:06:37;13.10;96.30
18898;DHT22;9581;49.484;8.556;2023-03-14T15:09:05;12.70;96.10
18898;DHT22;9581;49.484;8.556;2023-03-14T15:11:32;12.60;97.60
18898;DHT22;9581;49.484;8.556;2023-03-14T15:13:58;12.20;96.30
18898;DHT22;9581;49.484;8.556;2023-03-14T15:16:28;12.30;96.40
18898;DHT22;9581;49.484;8.556;2023-03-14T15:18:57;12.00;95.00
18898;DHT22;9581;49.484;8.556;2023-03-14T15:21:25;12.10;95.30
18898;DHT22;9581;49.484;8.556;2023-03-14T15:23:54;12.00;94.90
18898;DHT22;9581;49.484;8.556;2023-03-14T15:26:22;12.00;94.50
18898;DHT22;9581;49.484;8.556;2023-03-14T15:28:50;12.10;95.20
18898;DHT22;9581;49.484;8.556;2023-03-14T15:31:18;12.00;95.50
18898;DHT22;9581;49.484;8.556;2023-03-14T15:33:46;12.10;95.50
18898;DHT22;9581;49.484;8.556;2023-03-14T15:36:20;11.70;93.50
18898;DHT22;9581;49.484;8.556;2023-03-14T15:38:48;11.70;94.70
18898;DHT22;9581;49.484;8.556;2023-03-14T15:41:17;11.90;95.00
18898;DHT22;9581;49.484;8.556;2023-03-14T15:43:44;12.10;95.30
18898;DHT22;9581;49.484;8.556;2023-03-14T15:46:11;12.60;95.80
18898;DHT22;9581;49.484;8.556;2023-03-14T15:48:39;13.20;95.30
18898;DHT22;9581;49.484;8.556;2023-03-14T15:51:06;13.40;94.50
18898;DHT22;9581;49.484;8.556;2023-03-14T15:53:33;13.50;93.50
18898;DHT22;9581;49.484;8.556;2023-03-14T15:56:02;13.30;92.90
18898;DHT22;9581;49.484;8.556;2023-03-14T15:58:30;13.20;93.30
18898;DHT22;9581;49.484;8.556;2023-03-14T16:01:00;13.20;93.40
18898;DHT22;9581;49.484;8.556;2023-03-14T16:03:28;12.80;92.50